sensor_id;sensor_type;location;lat;lon;timestamp;temperature;humidity
2767;DHT22;1391;46.74287300;11.63683300;2023-06-14T00:00:32;15.50;99.90
2767;DHT22;1391;46.74287300;11.63683300;2023-06-14T00:03:01;15.50;99.90
2767;DHT22;1391;46.74287300;11.63683300;2023-06-14T00:05:29;15.50;99.90
2767;DHT22;1391;46.74287300;11.63683300;2023-06-14T00:07:59;15.50;99.90
2767;DHT22;1391;46.74287300;11.63683300;2023-06-14T00:10:28;15.40;99.90
2767;DHT22;1391;46.74287300;11.63683300;2023-06-14T00:12:57;15.00;99.90
2767;DHT22;1391;46.74287300;11.63683300;2023-06-14T00:15:25;15.40;99.90
2767;DHT22;1391;46.74287300;11.63683300;2023-06-14T00:17:52;15.40;99.90
2767;DHT22;1391;46.74287300;11.63683300;2023-06-14T00:20:20;15.60;99.90
2767;DHT22;1391;46.74287300;11.63683300;2023-06-14T00:22:48;15.50;99.90
2767;DHT22;1391;46.74287300;11.63683300;2023-06-14T00:25:15;15.50;99.90
2767;DHT22;1391;46.74287300;11.63683300;2023-06-14T00:27:44;15.50;99.90
2767;DHT22;1391;46.74287300;11.63683300;2023-06-14T00:30:12;15.10;99.90
2767;DHT22;1391;46.74287300;11.63683300;2023-06-14T00:32:40;15.70;99.90
2767;DHT22;1391;46.74287300;11.63683300;2023-06-14T00:35:08;15.50;99.90
2767;DHT22;1391;46.74287300;11.63683300;2023-06-14T00:37:36;15.20;99.90
2767;DHT22;1391;46.74287300;11.63683300;2023-06-14T00:40:05;15.00;99.90
2767;DHT22;1391;46.74287300;11.63683300;2023-06-14T00:42:33;15.00;99.90
2767;DHT22;1391;46.74287300;11.63683300;2023-06-14T00:45:01;15.10;99.90
2767;DHT22;1391;46.74287300;11.63683300;2023-06-14T00:47:29;14.80;99.90
2767;DHT22;1391;46.74287300;11.63683300;2023-06-14T00:49:57;15.10;99.90
2767;DHT22;1391;46.74287300;11.63683300;2023-06-14T00:52:24;14.90;99.90
2767;DHT22;1391;46.74287300;11.63683300;2023-06-14T00:54:51;15.00;99.90
2767;DHT22;1391;46.74287300;11.63683300;2023-06-14T00:57:19;14.90;99.90
2767;DHT22;1391;46.74287300;11.63683300;2023-06-14T00:59:48;15.00;99.90
2767;DHT22;1391;46.74287300;11.63683300;2023-06-14T01:02:17;15.00;99.90
2767;DHT22;1391;46.74287300;11.63683300;2023-06-14T01:04:46;15.00;99.90
2767;DHT22;1391;46.74287300;11.63683300;2023-06-14T01:07:25;15.10;99.90
2767;DHT22;1391;46.74287300;11.63683300;2023-06-14T01:10:08;14.90;99.90
2767;DHT22;1391;46.74287300;11.63683300;2023-06-14T01:12:50;15.00;99.90
2767;DHT22;1391;46.74287300;11.63683300;2023-06-14T01:15:23;15.10;99.90
2767;DHT22;1391;46.74287300;11.63683300;2023-06-14T01:17:52;14.90;99.90
2767;DHT22;1391;46.74287300;11.63683300;2023-06-14T01:20:20;15.10;99.90
2767;DHT22;1391;46.74287300;11.63683300;2023-06-14T01:22:52;14.90;99.90
2767;DHT22;1391;46.74287300;11.63683300;2023-06-14T01:25:20;15.10;99.90
2767;DHT22;1391;46.74287300;11.63683300;2023-06-14T01:27:49;14.90;99.90
2767;DHT22;1391;46.74287300;11.63683300;2023-06-14T01:30:18;14.90;99.90
2767;DHT22;1391;46.74287300;11.63683300;2023-06-14T01:32:47;15.10;99.90
2767;DHT22;1391;46.74287300;11.63683300;2023-06-14T01:35:16;14.90;99.90
2767;DHT22;1391;46.74287300;11.63683300;2023-06-14T01:37:44;15.10;99.90
2767;DHT22;1391;46.74287300;11.63683300;2023-06-14T01:40:16;14.90;99.90
2767;DHT22;1391;46.74287300;11.63683300;2023-06-14T01:42:46;15.10;99.90
2767;DHT22;1391;46.74287300;11.63683300;2023-06-14T01:45:15;14.90;99.90
2767;DHT22;1391;46.74287300;11.63683300;2023-06-14T01:47:44;15.00;99.90
2767;DHT22;1391;46.74287300;11.63683300;2023-06-14T01:50:12;15.10;99.90
2767;DHT22;1391;46.74287300;11.63683300;2023-06-14T01:52:39;14.90;99.90
2767;DHT22;1391;46.74287300;11.63683300;2023-06-14T01:55:07;15.10;99.90
2767;DHT22;1391;46.74287300;11.63683300;2023-06-14T01:57:36;14.90;99.90
2767;DHT22;1391;46.74287300;11.63683300;2023-06-14T02:00:04;15.10;99.90
2767;DHT22;1391;46.74287300;11.63683300;2023-06-14T02:02:36;14.80;99.90
2767;DHT22;1391;46.74287300;11.63683300;2023-06-14T02:05:04;14.80;99.90
2767;DHT22;1391;46.74287300;11.63683300;2023-06-14T02:07:31;14.80;99.90
2767;DHT22;1391;46.74287300;11.63683300;2023-06-14T02:09:58;14.90;99.90
2767;DHT22;1391;46.74287300;11.63683300;2023-06-14T02:12:26;15.10;99.90
2767;DHT22;1391;46.74287300;11.63683300;2023-06-14T02:14:54;14.80;99.90
2767;DHT22;1391;46.74287300;11.63683300;2023-06-14T02:17:23;14.80;99.90
2767;DHT22;1391;46.74287300;11.63683300;2023-06-14T02:19:50;14.80;99.90
2767;DHT22;1391;46.74287300;11.63683300;2023-06-14T02:22:17;14.80;99.90
2767;DHT22;1391;46.74287300;11.63683300;2023-06-14T02:24:46;14.80;99.90
2767;DHT22;1391;46.74287300;11.63683300;2023-06-14T02:27:13;14.80;99.90
2767;DHT22;1391;46.74287300;11.63683300;2023-06-14T02:29:40;14.80;99.90
2767;DHT22;1391;46.74287300;11.63683300;2023-06-14T02:32:09;14.80;99.90
2767;DHT22;1391;46.74287300;11.63683300;2023-06-14T02:34:36;14.80;99.90
2767;DHT22;1391;46.74287300;11.63683300;2023-06-14T02:37:06;14.80;99.90
2767;DHT22;1391;46.74287300;11.63683300;2023-06-14T02:39:33;14.80;99.90
2767;DHT22;1391;46.74287300;11.63683300;2023-06-14T02:42:01;14.80;99.90
2767;DHT22;1391;46.74287300;11.63683300;2023-06-14T02:44:29;14.80;99.90
2767;DHT22;1391;46.74287300;11.63683300;2023-06-14T02:46:57;14.80;99.90
2767;DHT22;1391;46.74287300;11.63683300;2023-06-14T02:49:27;14.80;99.90
2767;DHT22;1391;46.74287300;11.63683300;2023-06-14T02:51:55;14.80;99.90
2767;DHT22;1391;46.74287300;11.63683300;2023-06-14T02:54:22;14.80;99.90
2767;DHT22;1391;46.74287300;11.63683300;2023-06-14T02:56:49;14.80;99.90
2767;DHT22;1391;46.74287300;11.63683300;2023-06-14T02:59:17;14.80;99.90
2767;DHT22;1391;46.74287300;11.63683300;2023-06-14T03:01:44;14.80;99.90
2767;DHT22;1391;46.74287300;11.63683300;2023-06-14T03:04:12;14.80;99.90
2767;DHT22;1391;46.74287300;11.63683300;2023-06-14T03:06:41;14.80;99.90
2767;DHT22;1391;46.74287300;11.63683300;2023-06-14T03:09:09;14.90;99.90
2767;DHT22;1391;46.74287300;11.63683300;2023-06-14T03:11:36;15.10;99.90
2767;DHT22;1391;46.74287300;11.63683300;2023-06-14T03:14:04;14.90;99.90
2767;DHT22;1391;46.74287300;11.63683300;2023-06-14T03:16:32;14.70;99.90
2767;DHT22;1391;46.74287300;11.63683300;2023-06-14T03:19:00;14.40;99.90
2767;DHT22;1391;46.74287300;11.63683300;2023-06-14T03:21:27;14.70;99.90
2767;DHT22;1391;46.74287300;11.63683300;2023-06-14T03:23:55;14.30;99.90
2767;DHT22;1391;46.74287300;11.63683300;2023-06-14T03:26:22;14.30;99.90
2767;DHT22;1391;46.74287300;11.63683300;2023-06-14T03:28:50;14.40;99.90
2767;DHT22;1391;46.74287300;11.63683300;2023-06-14T03:31:18;14.70;99.90
2767;DHT22;1391;46.74287300;11.63683300;2023-06-14T03:33:45;14.30;99.90
2767;DHT22;1391;46.74287300;11.63683300;2023-06-14T03:36:12;14.40;99.90
2767;DHT22;1391;46.74287300;11.63683300;2023-06-14T03:38:40;14.60;99.90
2767;DHT22;1391;46.74287300;11.63683300;2023-06-14T03:41:08;14.40;99.90
2767;DHT22;1391;46.74287300;11.63683300;2023-06-14T03:43:36;14.60;99.90
2767;DHT22;1391;46.74287300;11.63683300;2023-06-14T03:46:03;14.40;99.90
2767;DHT22;1391;46.74287300;11.63683300;2023-06-14T03:48:30;14.60;99.90
2767;DHT22;1391;46.74287300;11.63683300;2023-06-14T03:50:59;14.40;99.90
2767;DHT22;1391;46.74287300;11.63683300;2023-06-14T03:53:26;14.50;99.90
2767;DHT22;1391;46.74287300;11.63683300;2023-06-14T03:55:55;14.40;99.90
2767;DHT22;1391;46.74287300;11.63683300;2023-06-14T03:58:24;14.50;99.90
2767;DHT22;1391;46.74287300;11.63683300;2023-06-14T04:00:51;14.30;99.90
2767;DHT22;1391;46.74287300;11.63683300;2023-06-14T04:03:18;14.30;99.90
2767;DHT22;1391;46.74287300;11.63683300;2023-06-14T04:05:54;14.30;99.90
2767;DHT22;1391;46.74287300;11.63683300;2023-06-14T04:08:22;14.40;99.90
2767;DHT22;1391;46.74287300;11.63683300;2023-06-14T04:10:50;14.60;99.90
2767;DHT22;1391;46.74287300;11.63683300;2023-06-14T04:13:17;14.40;99.90
2767;DHT22;1391;46.74287300;11.63683300;2023-06-14T04:15:46;14.50;99.90
2767;DHT22;1391;46.74287300;11.63683300;2023-06-14T04:18:13;14.40;99.90
2767;DHT22;1391;46.74287300;11.63683300;2023-06-14T04:20:41;14.50;99.90
2767;DHT22;1391;46.74287300;11.63683300;2023-06-14T04:23:12;14.40;99.90
2767;DHT22;1391;46.74287300;11.63683300;2023-06-14T04:25:40;14.70;99.90
2767;DHT22;1391;46.74287300;11.63683300;2023-06-14T04:28:11;14.40;99.90
2767;DHT22;1391;46.74287300;11.63683300;2023-06-14T04:30:41;14.50;99.90
2767;DHT22;1391;46.74287300;11.63683300;2023-06-14T04:33:10;14.30;99.90
2767;DHT22;1391;46.74287300;11.63683300;2023-06-14T04:35:37;14.40;99.90
2767;DHT22;1391;46.74287300;11.63683300;2023-06-14T04:38:06;14.50;99.90
2767;DHT22;1391;46.74287300;11.63683300;2023-06-14T04:40:35;14.30;99.90
2767;DHT22;1391;46.74287300;11.63683300;2023-06-14T04:43:08;14.30;99.90
2767;DHT22;1391;46.74287300;11.63683300;2023-06-14T04:45:38;14.30;99.90
2767;DHT22;1391;46.74287300;11.63683300;2023-06-14T04:48:05;14.00;99.90
2767;DHT22;1391;46.74287300;11.63683300;2023-06-14T04:50:34;14.40;99.90
2767;DHT22;1391;46.74287300;11.63683300;2023-06-14T04:53:02;14.20;99.90
2767;DHT22;1391;46.74287300;11.63683300;2023-06-14T04:55:29;14.30;99.90
2767;DHT22;1391;46.74287300;11.63683300;2023-06-14T04:57:56;14.30;99.90
2767;DHT22;1391;46.74287300;11.63683300;2023-06-14T05:00:24;14.40;99.90
2767;DHT22;1391;46.74287300;11.63683300;2023-06-14T05:02:51;14.60;99.90
2767;DHT22;1391;46.74287300;11.63683300;2023-06-14T05:05:18;14.40;99.90
2767;DHT22;1391;46.74287300;11.63683300;2023-06-14T05:07:47;14.60;99.90
2767;DHT22;1391;46.74287300;11.63683300;2023-06-14T05:10:15;14.30;99.90
2767;DHT22;1391;46.74287300;11.63683300;2023-06-14T05:12:42;14.40;99.90
2767;DHT22;1391;46.74287300;11.63683300;2023-06-14T05:15:10;14.60;99.90
2767;DHT22;1391;46.74287300;11.63683300;2023-06-14T05:17:37;14.40;99.90
2767;DHT22;1391;46.74287300;11.63683300;2023-06-14T05:20:07;14.60;99.90
2767;DHT22;1391;46.74287300;11.63683300;2023-06-14T05:22:36;14.50;99.90
2767;DHT22;1391;46.74287300;11.63683300;2023-06-14T05:25:05;14.40;99.90
2767;DHT22;1391;46.74287300;11.63683300;2023-06-14T05:27:33;14.20;99.90
2767;DHT22;1391;46.74287300;11.63683300;2023-06-14T05:30:03;14.40;99.90
2767;DHT22;1391;46.74287300;11.63683300;2023-06-14T05:32:31;14.60;99.90
2767;DHT22;1391;46.74287300;11.63683300;2023-06-14T05:34:58;14.40;99.90
2767;DHT22;1391;46.74287300;11.63683300;2023-06-14T05:37:25;14.60;99.90
2767;DHT22;1391;46.74287300;11.63683300;2023-06-14T05:39:52;14.40;99.90
2767;DHT22;1391;46.74287300;11.63683300;2023-06-14T05:42:21;14.60;99.90
2767;DHT22;1391;46.74287300;11.63683300;2023-06-14T05:44:48;14.60;99.90
2767;DHT22;1391;46.74287300;11.63683300;2023-06-14T05:47:16;14.40;99.90
2767;DHT22;1391;46.74287300;11.63683300;2023-06-14T05:49:43;15.10;99.90
2767;DHT22;1391;46.74287300;11.63683300;2023-06-14T05:52:10;15.00;99.90
2767;DHT22;1391;46.74287300;11.63683300;2023-06-14T05:54:38;14.70;99.90
2767;DHT22;1391;46.74287300;11.63683300;2023-06-14T05:57:07;14.80;99.90
2767;DHT22;1391;46.74287300;11.63683300;2023-06-14T05:59:35;14.80;99.90
2767;DHT22;1391;46.74287300;11.63683300;2023-06-14T06:02:03;14.80;99.90
2767;DHT22;1391;46.74287300;11.63683300;2023-06-14T06:04:30;14.90;99.90
2767;DHT22;1391;46.74287300;11.63683300;2023-06-14T06:06:58;15.10;99.90
2767;DHT22;1391;46.74287300;11.63683300;2023-06-14T06:09:25;14.90;99.90
2767;DHT22;1391;46.74287300;11.63683300;2023-06-14T06:11:52;15.10;99.90
2767;DHT22;1391;46.74287300;11.63683300;2023-06-14T06:14:19;15.30;99.90
2767;DHT22;1391;46.74287300;11.63683300;2023-06-14T06:16:48;15.30;99.90
2767;DHT22;1391;46.74287300;11.63683300;2023-06-14T06:19:16;15.30;99.90
2767;DHT22;1391;46.74287300;11.63683300;2023-06-14T06:21:43;15.30;99.90
2767;DHT22;1391;46.74287300;11.63683300;2023-06-14T06:24:10;15.30;99.90
2767;DHT22;1391;46.74287300;11.63683300;2023-06-14T06:26:37;15.40;99.90
2767;DHT22;1391;46.74287300;11.63683300;2023-06-14T06:29:05;15.90;99.90
2767;DHT22;1391;46.74287300;11.63683300;2023-06-14T06:31:32;16.00;99.90
2767;DHT22;1391;46.74287300;11.63683300;2023-06-14T06:34:01;15.80;99.90
2767;DHT22;1391;46.74287300;11.63683300;2023-06-14T06:36:29;16.80;99.90
2767;DHT22;1391;46.74287300;11.63683300;2023-06-14T06:38:56;16.40;99.90
2767;DHT22;1391;46.74287300;11.63683300;2023-06-14T06:41:23;16.70;99.90
2767;DHT22;1391;46.74287300;11.63683300;2023-06-14T06:43:51;16.30;99.90
2767;DHT22;1391;46.74287300;11.63683300;2023-06-14T06:46:18;16.70;97.90
2767;DHT22;1391;46.74287300;11.63683300;2023-06-14T06:48:45;16.40;96.80
2767;DHT22;1391;46.74287300;11.63683300;2023-06-14T06:51:14;17.30;98.50
2767;DHT22;1391;46.74287300;11.63683300;2023-06-14T06:53:42;17.50;97.30
2767;DHT22;1391;46.74287300;11.63683300;2023-06-14T06:56:10;17.70;92.30
2767;DHT22;1391;46.74287300;11.63683300;2023-06-14T06:58:37;17.90;91.60
2767;DHT22;1391;46.74287300;11.63683300;2023-06-14T07:01:05;17.80;88.10
2767;DHT22;1391;46.74287300;11.63683300;2023-06-14T07:03:32;17.90;86.80
2767;DHT22;1391;46.74287300;11.63683300;2023-06-14T07:05:59;17.80;84.70
2767;DHT22;1391;46.74287300;11.63683300;2023-06-14T07:08:29;17.90;84.90
2767;DHT22;1391;46.74287300;11.63683300;2023-06-14T07:10:56;17.70;78.00
2767;DHT22;1391;46.74287300;11.63683300;2023-06-14T07:13:23;18.30;80.60
2767;DHT22;1391;46.74287300;11.63683300;2023-06-14T07:15:50;18.90;78.10
2767;DHT22;1391;46.74287300;11.63683300;2023-06-14T07:18:20;18.40;73.10
2767;DHT22;1391;46.74287300;11.63683300;2023-06-14T07:20:48;18.90;73.20
2767;DHT22;1391;46.74287300;11.63683300;2023-06-14T07:23:15;18.30;70.40
2767;DHT22;1391;46.74287300;11.63683300;2023-06-14T07:25:44;19.00;71.10
2767;DHT22;1391;46.74287300;11.63683300;2023-06-14T07:28:11;19.60;71.20
2767;DHT22;1391;46.74287300;11.63683300;2023-06-14T07:30:38;19.60;67.20
2767;DHT22;1391;46.74287300;11.63683300;2023-06-14T07:33:06;19.00;67.60
2767;DHT22;1391;46.74287300;11.63683300;2023-06-14T07:35:34;20.00;69.00
2767;DHT22;1391;46.74287300;11.63683300;2023-06-14T07:38:01;20.40;65.40
2767;DHT22;1391;46.74287300;11.63683300;2023-06-14T07:40:28;19.50;59.20
2767;DHT22;1391;46.74287300;11.63683300;2023-06-14T07:42:57;20.20;61.40
2767;DHT22;1391;46.74287300;11.63683300;2023-06-14T07:45:24;19.60;56.30
2767;DHT22;1391;46.74287300;11.63683300;2023-06-14T07:47:51;19.70;56.40
2767;DHT22;1391;46.74287300;11.63683300;2023-06-14T07:50:18;20.70;58.00
2767;DHT22;1391;46.74287300;11.63683300;2023-06-14T07:52:46;19.70;58.40
2767;DHT22;1391;46.74287300;11.63683300;2023-06-14T07:55:14;20.50;54.10
2767;DHT22;1391;46.74287300;11.63683300;2023-06-14T07:57:42;20.70;53.80
2767;DHT22;1391;46.74287300;11.63683300;2023-06-14T08:00:12;20.40;49.20
2767;DHT22;1391;46.74287300;11.63683300;2023-06-14T08:02:41;20.50;46.80
2767;DHT22;1391;46.74287300;11.63683300;2023-06-14T08:05:09;21.30;50.60
2767;DHT22;1391;46.74287300;11.63683300;2023-06-14T08:07:37;20.50;46.80
2767;DHT22;1391;46.74287300;11.63683300;2023-06-14T08:10:06;20.40;44.80
2767;DHT22;1391;46.74287300;11.63683300;2023-06-14T08:12:34;21.40;47.70
2767;DHT22;1391;46.74287300;11.63683300;2023-06-14T08:15:01;21.10;43.50
2767;DHT22;1391;46.74287300;11.63683300;2023-06-14T08:17:29;21.90;55.60
2767;DHT22;1391;46.74287300;11.63683300;2023-06-14T08:19:57;22.70;51.00
2767;DHT22;1391;46.74287300;11.63683300;2023-06-14T08:22:25;22.10;38.80
2767;DHT22;1391;46.74287300;11.63683300;2023-06-14T08:24:53;22.00;39.40
2767;DHT22;1391;46.74287300;11.63683300;2023-06-14T08:27:20;21.30;36.80
2767;DHT22;1391;46.74287300;11.63683300;2023-06-14T08:29:48;21.30;39.80
2767;DHT22;1391;46.74287300;11.63683300;2023-06-14T08:32:15;21.40;41.40
2767;DHT22;1391;46.74287300;11.63683300;2023-06-14T08:34:44;21.90;44.80
2767;DHT22;1391;46.74287300;11.63683300;2023-06-14T08:37:11;22.30;35.30
2767;DHT22;1391;46.74287300;11.63683300;2023-06-14T08:39:39;21.40;36.80
2767;DHT22;1391;46.74287300;11.63683300;2023-06-14T08:42:07;22.20;40.60
2767;DHT22;1391;46.74287300;11.63683300;2023-06-14T08:44:36;22.30;35.90
2767;DHT22;1391;46.74287300;11.63683300;2023-06-14T08:47:06;22.20;34.30
2767;DHT22;1391;46.74287300;11.63683300;2023-06-14T08:49:36;22.90;33.00
2767;DHT22;1391;46.74287300;11.63683300;2023-06-14T08:52:08;22.90;35.80
2767;DHT22;1391;46.74287300;11.63683300;2023-06-14T08:54:38;22.20;35.20
2767;DHT22;1391;46.74287300;11.63683300;2023-06-14T08:57:10;22.30;31.40
2767;DHT22;1391;46.74287300;11.63683300;2023-06-14T08:59:46;22.90;31.00
2767;DHT22;1391;46.74287300;11.63683300;2023-06-14T09:02:18;23.00;30.10
2767;DHT22;1391;46.74287300;11.63683300;2023-06-14T09:04:47;23.10;28.70
2767;DHT22;1391;46.74287300;11.63683300;2023-06-14T09:07:17;23.00;32.10
2767;DHT22;1391;46.74287300;11.63683300;2023-06-14T09:09:44;23.00;28.30
2767;DHT22;1391;46.74287300;11.63683300;2023-06-14T09:12:12;22.90;28.80
2767;DHT22;1391;46.74287300;11.63683300;2023-06-14T09:14:39;22.90;27.30
2767;DHT22;1391;46.74287300;11.63683300;2023-06-14T09:17:08;22.40;29.30
2767;DHT22;1391;46.74287300;11.63683300;2023-06-14T09:19:35;23.30;30.00
2767;DHT22;1391;46.74287300;11.63683300;2023-06-14T09:22:03;22.90;26.50
2767;DHT22;1391;46.74287300;11.63683300;2023-06-14T09:24:32;22.90;27.20
2767;DHT22;1391;46.74287300;11.63683300;2023-06-14T09:26:59;22.90;27.80
2767;DHT22;1391;46.74287300;11.63683300;2023-06-14T09:29:26;22.60;25.50
2767;DHT22;1391;46.74287300;11.63683300;2023-06-14T09:31:54;23.00;24.30
2767;DHT22;1391;46.74287300;11.63683300;2023-06-14T09:34:21;23.60;24.00
2767;DHT22;1391;46.74287300;11.63683300;2023-06-14T09:36:50;23.50;24.60
2767;DHT22;1391;46.74287300;11.63683300;2023-06-14T09:39:17;23.50;23.70
2767;DHT22;1391;46.74287300;11.63683300;2023-06-14T09:41:46;23.50;24.60
2767;DHT22;1391;46.74287300;11.63683300;2023-06-14T09:44:14;23.90;27.30
2767;DHT22;1391;46.74287300;11.63683300;2023-06-14T09:46:42;24.00;22.30
2767;DHT22;1391;46.74287300;11.63683300;2023-06-14T09:49:11;23.60;21.60
2767;DHT22;1391;46.74287300;11.63683300;2023-06-14T09:51:43;24.30;22.10
2767;DHT22;1391;46.74287300;11.63683300;2023-06-14T09:54:15;23.80;25.60
2767;DHT22;1391;46.74287300;11.63683300;2023-06-14T09:56:46;24.00;22.10
2767;DHT22;1391;46.74287300;11.63683300;2023-06-14T09:59:17;24.40;22.20
2767;DHT22;1391;46.74287300;11.63683300;2023-06-14T10:01:48;24.40;21.90
2767;DHT22;1391;46.74287300;11.63683300;2023-06-14T10:04:18;24.40;22.00
2767;DHT22;1391;46.74287300;11.63683300;2023-06-14T10:06:47;24.40;21.30
2767;DHT22;1391;46.74287300;11.63683300;2023-06-14T10:09:15;24.30;21.10
2767;DHT22;1391;46.74287300;11.63683300;2023-06-14T10:11:43;24.40;21.90
2767;DHT22;1391;46.74287300;11.63683300;2023-06-14T10:14:12;24.50;24.80
2767;DHT22;1391;46.74287300;11.63683300;2023-06-14T10:16:47;24.60;23.10
2767;DHT22;1391;46.74287300;11.63683300;2023-06-14T10:19:21;24.50;22.30
2767;DHT22;1391;46.74287300;11.63683300;2023-06-14T10:21:58;24.60;23.50
2767;DHT22;1391;46.74287300;11.63683300;2023-06-14T10:24:33;24.60;23.60
2767;DHT22;1391;46.74287300;11.63683300;2023-06-14T10:27:07;24.70;23.20
2767;DHT22;1391;46.74287300;11.63683300;2023-06-14T10:30:04;24.40;23.60
2767;DHT22;1391;46.74287300;11.63683300;2023-06-14T10:32:34;23.60;23.20
2767;DHT22;1391;46.74287300;11.63683300;2023-06-14T10:35:05;24.40;24.80
2767;DHT22;1391;46.74287300;11.63683300;2023-06-14T10:37:33;23.90;24.50
2767;DHT22;1391;46.74287300;11.63683300;2023-06-14T10:40:01;24.60;23.30
2767;DHT22;1391;46.74287300;11.63683300;2023-06-14T10:42:31;24.70;21.90
2767;DHT22;1391;46.74287300;11.63683300;2023-06-14T10:45:00;24.70;19.40
2767;DHT22;1391;46.74287300;11.63683300;2023-06-14T10:47:29;25.20;21.00
2767;DHT22;1391;46.74287300;11.63683300;2023-06-14T10:50:03;25.30;19.50
2767;DHT22;1391;46.74287300;11.63683300;2023-06-14T10:52:33;24.60;21.70
2767;DHT22;1391;46.74287300;11.63683300;2023-06-14T10:55:07;24.70;22.10
2767;DHT22;1391;46.74287300;11.63683300;2023-06-14T10:57:38;24.60;22.20
2767;DHT22;1391;46.74287300;11.63683300;2023-06-14T11:00:10;24.30;22.10
2767;DHT22;1391;46.74287300;11.63683300;2023-06-14T11:03:13;23.70;23.90
2767;DHT22;1391;46.74287300;11.63683300;2023-06-14T11:06:13;23.50;24.20
2767;DHT22;1391;46.74287300;11.63683300;2023-06-14T11:09:01;23.70;24.70
2767;DHT22;1391;46.74287300;11.63683300;2023-06-14T11:11:42;24.50;24.60
2767;DHT22;1391;46.74287300;11.63683300;2023-06-14T11:14:10;24.70;21.60
2767;DHT22;1391;46.74287300;11.63683300;2023-06-14T11:16:39;25.20;22.30
2767;DHT22;1391;46.74287300;11.63683300;2023-06-14T11:19:06;24.70;22.90
2767;DHT22;1391;46.74287300;11.63683300;2023-06-14T11:21:34;24.90;22.30
2767;DHT22;1391;46.74287300;11.63683300;2023-06-14T11:24:10;25.10;21.20
2767;DHT22;1391;46.74287300;11.63683300;2023-06-14T11:26:38;24.60;22.20
2767;DHT22;1391;46.74287300;11.63683300;2023-06-14T11:29:06;24.40;19.30
2767;DHT22;1391;46.74287300;11.63683300;2023-06-14T11:31:33;24.30;20.10
2767;DHT22;1391;46.74287300;11.63683300;2023-06-14T11:34:03;25.20;18.20
2767;DHT22;1391;46.74287300;11.63683300;2023-06-14T11:36:34;24.40;19.00
2767;DHT22;1391;46.74287300;11.63683300;2023-06-14T11:39:02;24.40;18.00
2767;DHT22;1391;46.74287300;11.63683300;2023-06-14T11:41:37;25.10;17.10
2767;DHT22;1391;46.74287300;11.63683300;2023-06-14T11:44:05;25.20;20.10
2767;DHT22;1391;46.74287300;11.63683300;2023-06-14T11:46:33;25.10;19.10
2767;DHT22;1391;46.74287300;11.63683300;2023-06-14T11:49:03;25.10;19.10
2767;DHT22;1391;46.74287300;11.63683300;2023-06-14T11:51:33;25.50;21.10
2767;DHT22;1391;46.74287300;11.63683300;2023-06-14T11:54:01;25.30;15.90
2767;DHT22;1391;46.74287300;11.63683300;2023-06-14T11:56:29;25.20;17.10
2767;DHT22;1391;46.74287300;11.63683300;2023-06-14T11:58:57;25.40;17.70
2767;DHT22;1391;46.74287300;11.63683300;2023-06-14T12:01:25;25.30;15.00
2767;DHT22;1391;46.74287300;11.63683300;2023-06-14T12:03:54;25.40;9.40
2767;DHT22;1391;46.74287300;11.63683300;2023-06-14T12:06:30;25.40;16.80
2767;DHT22;1391;46.74287300;11.63683300;2023-06-14T12:09:03;25.70;5.20
2767;DHT22;1391;46.74287300;11.63683300;2023-06-14T12:11:33;26.10;9.60
2767;DHT22;1391;46.74287300;11.63683300;2023-06-14T12:14:03;26.10;12.50
2767;DHT22;1391;46.74287300;11.63683300;2023-06-14T12:16:32;26.20;13.70
2767;DHT22;1391;46.74287300;11.63683300;2023-06-14T12:19:12;25.70;12.90
2767;DHT22;1391;46.74287300;11.63683300;2023-06-14T12:21:42;26.40;10.40
2767;DHT22;1391;46.74287300;11.63683300;2023-06-14T12:24:11;25.70;13.60
2767;DHT22;1391;46.74287300;11.63683300;2023-06-14T12:26:39;26.20;12.80
2767;DHT22;1391;46.74287300;11.63683300;2023-06-14T12:29:08;25.60;12.80
2767;DHT22;1391;46.74287300;11.63683300;2023-06-14T12:31:35;25.40;11.40
2767;DHT22;1391;46.74287300;11.63683300;2023-06-14T12:34:03;25.50;11.90
2767;DHT22;1391;46.74287300;11.63683300;2023-06-14T12:36:30;25.10;11.10
2767;DHT22;1391;46.74287300;11.63683300;2023-06-14T12:38:59;25.10;15.20
2767;DHT22;1391;46.74287300;11.63683300;2023-06-14T12:41:26;25.50;13.40
2767;DHT22;1391;46.74287300;11.63683300;2023-06-14T12:43:53;26.00;12.30
2767;DHT22;1391;46.74287300;11.63683300;2023-06-14T12:46:20;25.50;16.50
2767;DHT22;1391;46.74287300;11.63683300;2023-06-14T12:48:48;25.70;16.10
2767;DHT22;1391;46.74287300;11.63683300;2023-06-14T12:51:15;26.10;12.10
2767;DHT22;1391;46.74287300;11.63683300;2023-06-14T12:53:43;25.70;15.00
2767;DHT22;1391;46.74287300;11.63683300;2023-06-14T12:56:12;25.50;13.90
2767;DHT22;1391;46.74287300;11.63683300;2023-06-14T12:58:39;25.50;9.90
2767;DHT22;1391;46.74287300;11.63683300;2023-06-14T13:01:06;26.40;13.20
2767;DHT22;1391;46.74287300;11.63683300;2023-06-14T13:03:33;26.20;12.00
2767;DHT22;1391;46.74287300;11.63683300;2023-06-14T13:06:01;26.00;10.20
2767;DHT22;1391;46.74287300;11.63683300;2023-06-14T13:08:29;25.50;8.40
2767;DHT22;1391;46.74287300;11.63683300;2023-06-14T13:10:57;25.90;10.70
2767;DHT22;1391;46.74287300;11.63683300;2023-06-14T13:13:25;26.10;9.40
2767;DHT22;1391;46.74287300;11.63683300;2023-06-14T13:15:53;25.40;9.20
2767;DHT22;1391;46.74287300;11.63683300;2023-06-14T13:18:20;25.50;10.00
2767;DHT22;1391;46.74287300;11.63683300;2023-06-14T13:20:48;25.50;7.40
2767;DHT22;1391;46.74287300;11.63683300;2023-06-14T13:23:15;26.10;7.60
2767;DHT22;1391;46.74287300;11.63683300;2023-06-14T13:25:43;25.20;10.00
2767;DHT22;1391;46.74287300;11.63683300;2023-06-14T13:28:10;24.50;10.00
2767;DHT22;1391;46.74287300;11.63683300;2023-06-14T13:30:39;24.40;9.60
2767;DHT22;1391;46.74287300;11.63683300;2023-06-14T13:33:06;24.30;10.50
2767;DHT22;1391;46.74287300;11.63683300;2023-06-14T13:35:33;24.30;12.40
2767;DHT22;1391;46.74287300;11.63683300;2023-06-14T13:38:01;24.20;13.30
2767;DHT22;1391;46.74287300;11.63683300;2023-06-14T13:40:28;24.40;12.00
2767;DHT22;1391;46.74287300;11.63683300;2023-06-14T13:42:55;24.10;12.90